Time;durP1;ratioP1;P1;durP2;ratioP2;P2;SDS_P1;SDS_P2;PMS_P1;PMS_P2;Temp;Humidity;BMP_temperature;BMP_pressure;BME280_temperature;BME280_humidity;BME280_pressure;Samples;Min_cycle;Max_cycle;Signal;HPM_P1;HPM_P2
2021/10/18 00:02:37;;;;;;;12.87;8.17;;;4.00;99.90;3.50;97313.00;;;;5076636;28;21082;-70
2021/10/18 00:05:25;;;;;;;9.37;7.43;;;3.90;99.90;3.40;97310.00;;;;5068288;28;20470;-71
2021/10/18 00:08:15;;;;;;;10.63;7.33;;;4.00;99.90;3.40;97314.00;;;;5073822;28;20465;-71
2021/10/18 00:11:04;;;;;;;7.57;6.03;;;3.90;99.90;3.20;97306.00;;;;5079104;28;20441;-70
2021/10/18 00:13:53;;;;;;;7.07;6.40;;;3.90;99.90;3.10;97314.00;;;;5079453;28;20423;-71
2021/10/18 00:16:44;;;;;;;10.63;5.73;;;3.90;99.90;3.30;97308.00;;;;5063746;28;20430;-70
2021/10/18 00:19:33;;;;;;;5.30;4.70;;;3.80;99.90;3.40;97310.00;;;;5072322;28;20436;-70
2021/10/18 00:22:22;;;;;;;6.60;5.83;;;3.90;99.90;3.20;97302.00;;;;5087820;28;20476;-73
2021/10/18 00:25:11;;;;;;;6.10;5.37;;;3.90;99.90;3.00;97313.00;;;;5081085;28;20466;-70
2021/10/18 00:28:00;;;;;;;5.57;5.00;;;3.80;99.90;2.80;97298.00;;;;5064972;28;20422;-71
2021/10/18 00:30:49;;;;;;;5.43;4.83;;;3.60;99.90;2.80;97303.00;;;;5064586;28;20828;-70
2021/10/18 00:33:40;;;;;;;6.40;5.10;;;3.60;99.90;3.00;97304.00;;;;5069539;28;20434;-70
2021/10/18 00:36:29;;;;;;;8.20;6.30;;;3.60;99.90;3.10;97300.00;;;;5084116;28;20428;-69
2021/10/18 00:39:17;;;;;;;7.27;6.10;;;3.60;99.90;3.10;97301.00;;;;5070607;28;20430;-69
2021/10/18 00:42:06;;;;;;;6.37;5.50;;;3.70;99.90;2.90;97304.00;;;;5084027;28;20449;-70
2021/10/18 00:44:55;;;;;;;8.10;5.00;;;3.60;99.90;2.60;97297.00;;;;5083039;28;20468;-70
2021/10/18 00:47:44;;;;;;;6.20;5.50;;;3.50;99.90;2.40;97291.00;;;;5083443;28;21125;-71
2021/10/18 00:50:34;;;;;;;6.37;5.27;;;3.40;99.90;2.70;97295.00;;;;5084218;28;20432;-70
2021/10/18 00:53:25;;;;;;;8.53;5.83;;;3.40;99.90;2.90;97302.00;;;;5082715;28;20426;-70
2021/10/18 00:56:14;;;;;;;5.97;4.80;;;3.40;99.90;2.70;97300.00;;;;5083605;28;20421;-70
2021/10/18 00:59:04;;;;;;;5.80;5.23;;;3.50;99.90;2.90;97294.00;;;;5070804;28;20422;-71
2021/10/18 01:01:53;;;;;;;5.27;4.77;;;3.50;99.90;3.00;97300.00;;;;5082495;28;20801;-71
2021/10/18 01:04:43;;;;;;;9.53;5.97;;;3.60;99.90;3.10;97299.00;;;;5067506;28;20462;-72
2021/10/18 01:07:34;;;;;;;10.03;7.07;;;3.60;99.90;3.20;97294.00;;;;5080101;28;20430;-73
2021/10/18 01:10:23;;;;;;;8.97;6.33;;;3.70;99.90;3.00;97296.00;;;;5078014;28;20429;-72
2021/10/18 01:13:12;;;;;;;10.03;6.23;;;3.70;99.90;2.80;97296.00;;;;5107377;28;20420;-70
2021/10/18 01:16:02;;;;;;;7.83;5.60;;;3.60;99.90;2.80;97294.00;;;;5100365;28;20959;-70
2021/10/18 01:18:50;;;;;;;12.23;5.77;;;3.50;99.90;2.60;97287.00;;;;5088509;28;20429;-70
2021/10/18 01:21:41;;;;;;;6.10;5.47;;;3.50;99.90;2.70;97291.00;;;;5088998;28;20456;-72
2021/10/18 01:24:31;;;;;;;6.50;5.87;;;3.40;99.90;2.90;97290.00;;;;5099222;28;20427;-70
2021/10/18 01:27:19;;;;;;;6.70;5.40;;;3.50;99.90;3.10;97286.00;;;;5095173;28;20854;-71
2021/10/18 01:30:09;;;;;;;6.60;5.87;;;3.50;99.90;3.10;97294.00;;;;5099014;28;20444;-70
2021/10/18 01:32:59;;;;;;;7.03;5.23;;;3.60;99.90;3.20;97293.00;;;;5101302;28;20429;-69
2021/10/18 01:35:48;;;;;;;11.23;5.43;;;3.70;99.90;3.00;97286.00;;;;5080363;28;20417;-71
2021/10/18 01:38:38;;;;;;;7.60;6.80;;;3.70;99.90;3.30;97292.00;;;;5088060;28;20433;-70
2021/10/18 01:41:27;;;;;;;6.63;5.70;;;3.80;99.90;3.50;97303.00;;;;5088337;28;20449;-73
2021/10/18 01:44:16;;;;;;;9.60;5.73;;;3.90;99.90;3.40;97302.00;;;;5066666;28;20426;-73
2021/10/18 01:47:05;;;;;;;5.03;4.57;;;3.90;99.90;3.30;97295.00;;;;5063961;28;20849;-70
2021/10/18 01:49:54;;;;;;;6.20;5.60;;;4.00;99.90;3.00;97296.00;;;;5075670;28;20453;-72
2021/10/18 01:52:44;;;;;;;6.53;4.73;;;3.90;99.90;3.00;97295.00;;;;5078880;28;20447;-70
2021/10/18 01:55:34;;;;;;;6.97;5.50;;;4.40;99.90;2.90;97298.00;;;;5066965;28;20418;-72
2021/10/18 01:58:24;;;;;;;6.07;4.53;;;3.70;99.90;2.70;97301.00;;;;5068161;28;20430;-71
2021/10/18 02:01:12;;;;;;;3.80;3.03;;;3.60;99.90;2.70;97287.00;;;;5066453;28;20454;-72
2021/10/18 02:04:01;;;;;;;9.27;4.27;;;3.50;99.90;2.70;97298.00;;;;5074402;28;20457;-71
2021/10/18 02:06:50;;;;;;;6.67;4.87;;;3.50;99.90;2.80;97301.00;;;;5069039;28;20458;-71
2021/10/18 02:09:39;;;;;;;5.87;4.40;;;3.50;99.90;3.00;97301.00;;;;5078273;28;20422;-69
2021/10/18 02:12:30;;;;;;;7.07;6.00;;;3.50;99.90;3.20;97297.00;;;;5076110;28;20457;-69
2021/10/18 02:15:19;;;;;;;8.87;5.90;;;3.70;99.90;3.00;97302.00;;;;5082735;28;20417;-70
2021/10/18 02:18:08;;;;;;;7.13;5.93;;;3.70;99.90;3.00;97306.00;;;;5083044;28;20434;-72
2021/10/18 02:20:59;;;;;;;5.50;4.00;;;3.70;99.90;3.00;97309.00;;;;5079820;28;20470;-72
2021/10/18 02:23:48;;;;;;;6.13;5.50;;;3.70;99.90;3.20;97299.00;;;;5096426;28;20435;-71
2021/10/18 02:26:37;;;;;;;10.10;6.70;;;3.70;99.90;3.40;97306.00;;;;5066611;28;20519;-73
2021/10/18 02:29:27;;;;;;;5.07;4.67;;;3.80;99.90;3.10;97296.00;;;;5076872;28;20421;-69
2021/10/18 02:32:16;;;;;;;5.17;4.67;;;3.80;99.90;2.80;97302.00;;;;5078905;28;20448;-70
2021/10/18 02:35:07;;;;;;;5.83;5.30;;;3.70;99.90;3.00;97301.00;;;;5084315;28;20417;-71
2021/10/18 02:37:56;;;;;;;7.97;6.10;;;3.60;99.90;3.20;97295.00;;;;5085700;28;20429;-70
2021/10/18 02:40:45;;;;;;;8.47;6.20;;;3.70;99.90;3.40;97309.00;;;;5074669;28;20951;-70
2021/10/18 02:43:34;;;;;;;8.73;6.00;;;3.80;99.90;3.60;97308.00;;;;5088133;28;20433;-70
2021/10/18 02:46:24;;;;;;;7.90;5.63;;;3.90;99.90;3.30;97307.00;;;;5086518;28;20476;-72
2021/10/18 02:49:13;;;;;;;4.67;3.60;;;3.90;99.90;2.60;97299.00;;;;5087318;28;20434;-69
2021/10/18 02:52:02;;;;;;;6.07;4.63;;;3.70;99.90;2.40;97315.00;;;;5086166;28;20806;-71
2021/10/18 02:54:51;;;;;;;5.40;4.80;;;3.50;99.90;2.60;97309.00;;;;5066006;28;20429;-71
2021/10/18 02:57:40;;;;;;;6.53;5.83;;;3.50;99.90;2.90;97318.00;;;;5065788;28;20437;-71
2021/10/18 03:00:29;;;;;;;7.43;5.73;;;3.50;99.90;2.90;97316.00;;;;5065874;28;20430;-70
2021/10/18 03:03:19;;;;;;;8.30;6.37;;;3.50;99.90;3.10;97298.00;;;;5074262;28;20421;-71
2021/10/18 03:06:08;;;;;;;7.63;6.20;;;3.60;99.90;3.30;97314.00;;;;5081902;28;20508;-71
2021/10/18 03:08:59;;;;;;;6.03;5.43;;;3.70;99.90;3.10;97312.00;;;;5067691;28;20430;-69
2021/10/18 03:11:47;;;;;;;6.70;6.10;;;3.70;99.90;3.20;97313.00;;;;5065592;28;20572;-71
2021/10/18 03:14:37;;;;;;;8.00;6.73;;;3.70;99.90;3.20;97303.00;;;;5066459;28;20470;-71
2021/10/18 03:17:26;;;;;;;6.37;5.40;;;3.80;99.90;3.30;97309.00;;;;5066698;28;20430;-70
2021/10/18 03:20:16;;;;;;;6.67;5.97;;;3.90;99.90;3.30;97309.00;;;;5064237;28;21063;-71
2021/10/18 03:23:05;;;;;;;7.83;6.50;;;3.80;99.90;3.40;97323.00;;;;5066590;28;20427;-71
2021/10/18 03:25:54;;;;;;;7.33;6.63;;;3.90;99.90;3.50;97314.00;;;;5084143;28;20473;-70
2021/10/18 03:28:43;;;;;;;6.30;5.80;;;3.90;99.90;3.00;97323.00;;;;5086232;28;20435;-73
2021/10/18 03:31:32;;;;;;;6.43;5.27;;;3.80;99.90;2.80;97317.00;;;;5065262;28;20458;-70
2021/10/18 03:34:21;;;;;;;6.90;5.00;;;3.70;99.90;2.90;97311.00;;;;5064976;28;20458;-70
2021/10/18 03:37:11;;;;;;;6.23;5.63;;;3.60;99.90;2.80;97332.00;;;;5066265;28;20435;-70
2021/10/18 03:40:00;;;;;;;6.87;5.80;;;3.60;99.90;2.50;97321.00;;;;5079096;28;20426;-71
2021/10/18 03:42:49;;;;;;;7.03;5.60;;;3.40;99.90;2.60;97319.00;;;;5064286;28;20435;-73
2021/10/18 03:45:38;;;;;;;7.70;5.67;;;3.40;99.90;2.80;97320.00;;;;5065655;28;20429;-71
2021/10/18 03:48:27;;;;;;;7.00;6.30;;;3.40;99.90;3.00;97325.00;;;;5066189;28;20503;-71
2021/10/18 03:51:16;;;;;;;8.13;7.10;;;3.50;99.90;3.10;97330.00;;;;5065428;28;20443;-70
2021/10/18 03:54:06;;;;;;;12.70;7.07;;;3.60;99.90;3.10;97336.00;;;;5064932;28;20426;-69
2021/10/18 03:56:55;;;;;;;7.33;6.43;;;3.60;99.90;2.90;97339.00;;;;5066616;28;20442;-69
2021/10/18 03:59:44;;;;;;;5.97;5.00;;;3.60;99.90;2.80;97328.00;;;;5064724;28;20427;-70
2021/10/18 04:02:33;;;;;;;6.43;5.57;;;3.50;99.90;2.90;97342.00;;;;5064656;28;20827;-71
2021/10/18 04:05:22;;;;;;;8.73;6.77;;;3.50;99.90;3.10;97332.00;;;;5064372;28;20836;-70
2021/10/18 04:08:11;;;;;;;7.50;6.73;;;3.60;99.90;3.30;97338.00;;;;5064975;28;20469;-69
2021/10/18 04:11:02;;;;;;;8.50;6.27;;;3.70;99.90;3.50;97341.00;;;;5064208;28;20454;-69
2021/10/18 04:13:51;;;;;;;13.17;7.73;;;3.80;99.90;3.60;97339.00;;;;5067654;28;20959;-69
2021/10/18 04:16:39;;;;;;;10.17;6.80;;;3.90;99.90;3.50;97345.00;;;;5067141;28;20426;-68
2021/10/18 04:19:28;;;;;;;6.83;5.93;;;4.00;99.90;3.20;97343.00;;;;5064745;28;20960;-71
2021/10/18 04:22:17;;;;;;;8.23;5.97;;;3.90;99.90;3.20;97338.00;;;;5063291;28;20447;-70
2021/10/18 04:25:07;;;;;;;5.80;5.20;;;3.80;99.90;3.10;97350.00;;;;5085782;28;20433;-70
2021/10/18 04:27:58;;;;;;;6.07;5.30;;;3.80;99.90;2.80;97346.00;;;;5065991;28;20469;-71
2021/10/18 04:30:47;;;;;;;12.37;6.27;;;3.70;99.90;3.30;97356.00;;;;5064999;28;20449;-71
2021/10/18 04:33:36;;;;;;;9.20;7.70;;;3.70;99.90;3.40;97359.00;;;;5064270;28;20427;-70
2021/10/18 04:36:25;;;;;;;6.87;6.20;;;3.80;99.90;3.50;97359.00;;;;5065184;28;20429;-72
2021/10/18 04:39:13;;;;;;;10.13;7.07;;;3.90;99.90;3.60;97374.00;;;;5065168;28;20438;-71
2021/10/18 04:42:02;;;;;;;7.60;5.97;;;4.00;99.90;3.10;97357.00;;;;5067067;28;20446;-71
2021/10/18 04:44:53;;;;;;;7.13;5.53;;;3.90;99.90;2.80;97359.00;;;;5065442;28;20422;-70
2021/10/18 04:47:43;;;;;;;7.97;6.20;;;3.80;99.90;2.80;97363.00;;;;5078036;28;20468;-70
2021/10/18 04:50:33;;;;;;;6.90;5.73;;;3.70;99.90;2.70;97370.00;;;;5089279;28;20796;-69
2021/10/18 04:53:22;;;;;;;8.17;5.83;;;3.60;99.90;2.80;97367.00;;;;5065249;28;20421;-69
2021/10/18 04:56:11;;;;;;;7.40;6.00;;;3.50;99.90;2.80;97388.00;;;;5065636;28;20434;-68
2021/10/18 04:59:00;;;;;;;8.50;5.00;;;3.50;99.90;2.70;97384.00;;;;5064629;28;20430;-68
2021/10/18 05:01:50;;;;;;;8.70;6.50;;;3.50;99.90;2.60;97398.00;;;;5065950;28;20907;-69
2021/10/18 05:04:39;;;;;;;12.53;6.93;;;3.40;99.90;3.00;97399.00;;;;5065090;28;20445;-70
2021/10/18 05:07:28;;;;;;;9.63;6.30;;;3.40;99.90;3.10;97410.00;;;;5064950;28;20473;-69
2021/10/18 05:10:16;;;;;;;9.37;6.60;;;3.50;99.90;3.20;97411.00;;;;5064267;28;20437;-69
2021/10/18 05:13:06;;;;;;;10.10;6.60;;;3.60;99.90;3.20;97401.00;;;;5065511;28;20411;-69
2021/10/18 05:15:56;;;;;;;6.63;5.93;;;3.70;99.90;2.90;97416.00;;;;5064781;28;20423;-69
2021/10/18 05:18:46;;;;;;;9.30;6.57;;;3.60;99.90;3.00;97414.00;;;;5078271;28;20814;-69
2021/10/18 05:21:35;;;;;;;10.27;7.17;;;3.60;99.90;3.30;97422.00;;;;5084559;28;20452;-71
2021/10/18 05:24:24;;;;;;;7.50;5.83;;;3.70;99.90;3.10;97426.00;;;;5089425;28;20946;-69
2021/10/18 05:27:12;;;;;;;10.97;5.80;;;3.70;99.90;2.90;97425.00;;;;5089946;28;20464;-72
2021/10/18 05:30:01;;;;;;;6.50;5.77;;;3.70;99.90;2.90;97423.00;;;;5084035;28;20440;-69
2021/10/18 05:32:52;;;;;;;7.00;6.07;;;3.60;99.90;3.00;97419.00;;;;5064664;28;20430;-69
2021/10/18 05:35:43;;;;;;;9.10;7.47;;;3.60;99.90;3.30;97435.00;;;;5065091;28;20426;-69
2021/10/18 05:38:32;;;;;;;12.37;7.13;;;3.70;99.90;3.50;97448.00;;;;5064761;28;20809;-69
2021/10/18 05:41:20;;;;;;;8.80;7.33;;;3.80;99.90;3.60;97454.00;;;;5065917;28;20983;-69
2021/10/18 05:44:09;;;;;;;8.33;7.07;;;3.90;99.90;3.30;97458.00;;;;5084875;28;20426;-69
2021/10/18 05:46:58;;;;;;;7.30;6.60;;;4.00;99.90;3.50;97465.00;;;;5088422;28;20413;-69
2021/10/18 05:49:48;;;;;;;8.53;7.53;;;4.00;99.90;3.50;97461.00;;;;5087810;28;20436;-70
2021/10/18 05:52:39;;;;;;;10.00;6.93;;;4.00;99.90;3.50;97467.00;;;;5087807;28;20450;-70
2021/10/18 05:55:28;;;;;;;10.03;6.37;;;4.10;99.90;3.50;97466.00;;;;5087500;28;20425;-70
2021/10/18 05:58:17;;;;;;;8.80;6.63;;;4.10;99.90;3.50;97481.00;;;;5087445;28;20417;-70
2021/10/18 06:01:06;;;;;;;8.60;6.83;;;4.10;99.90;3.70;97478.00;;;;5087379;28;20468;-71
2021/10/18 06:03:55;;;;;;;7.00;5.90;;;4.10;99.90;3.70;97484.00;;;;5087963;28;20491;-71
2021/10/18 06:06:43;;;;;;;7.03;5.60;;;4.20;99.90;3.60;97484.00;;;;5087362;28;21563;-70
2021/10/18 06:09:34;;;;;;;7.73;6.20;;;4.20;99.90;3.60;97488.00;;;;5090107;28;20430;-71
2021/10/18 06:12:23;;;;;;;8.03;6.93;;;4.20;99.90;3.60;97486.00;;;;5088388;28;20453;-70
2021/10/18 06:15:12;;;;;;;7.97;6.63;;;4.20;99.90;3.70;97503.00;;;;5088143;28;20978;-71
2021/10/18 06:18:13;;;;;;;11.27;6.90;;;4.20;99.90;3.70;97516.00;;;;5090592;28;20807;-69
2021/10/18 06:21:02;;;;;;;8.10;6.40;;;4.30;99.90;3.70;97518.00;;;;5094265;28;20950;-71
2021/10/18 06:23:51;;;;;;;7.63;6.10;;;4.30;99.90;3.50;97524.00;;;;5097740;28;20429;-70
2021/10/18 06:26:42;;;;;;;6.93;5.97;;;4.30;99.90;3.60;97521.00;;;;5106800;28;20503;-71
2021/10/18 06:29:31;;;;;;;6.97;5.80;;;4.20;99.90;3.90;97524.00;;;;5099280;28;20789;-71
2021/10/18 06:32:20;;;;;;;9.50;7.80;;;4.30;99.90;4.20;97530.00;;;;5101558;28;20449;-70
2021/10/18 06:35:09;;;;;;;8.63;5.50;;;4.40;99.90;4.20;97541.00;;;;5078438;28;20218;-71
2021/10/18 06:37:58;;;;;;;8.77;7.00;;;4.50;99.90;4.40;97532.00;;;;5068626;28;20415;-70
2021/10/18 06:40:49;;;;;;;7.50;6.23;;;4.70;99.90;4.50;97547.00;;;;5069010;28;20458;-70
2021/10/18 06:43:39;;;;;;;9.33;6.87;;;4.80;99.90;4.40;97548.00;;;;5077847;28;20964;-69
2021/10/18 06:46:28;;;;;;;10.53;6.77;;;4.90;99.90;4.50;97549.00;;;;5066809;28;20434;-69
2021/10/18 06:49:17;;;;;;;6.80;5.77;;;4.90;99.90;4.70;97562.00;;;;5067270;28;20228;-72
2021/10/18 06:52:06;;;;;;;8.37;6.43;;;5.00;99.90;4.60;97570.00;;;;5073965;28;20453;-69
2021/10/18 06:54:55;;;;;;;10.47;7.40;;;5.00;99.90;4.60;97557.00;;;;5067270;28;20690;-71
2021/10/18 06:57:44;;;;;;;8.10;6.47;;;5.00;99.90;4.60;97560.00;;;;5067539;28;20435;-69
2021/10/18 07:00:34;;;;;;;9.23;7.77;;;5.10;99.90;4.60;97561.00;;;;5066792;28;20199;-69
2021/10/18 07:03:24;;;;;;;9.90;7.50;;;5.10;99.90;4.70;97560.00;;;;5066572;28;20696;-68
2021/10/18 07:06:12;;;;;;;9.17;7.57;;;5.10;99.90;4.60;97564.00;;;;5067144;28;20200;-69
2021/10/18 07:09:01;;;;;;;10.10;7.43;;;4.80;99.90;4.80;97567.00;;;;5077714;28;20226;-70
2021/10/18 07:11:50;;;;;;;7.63;6.57;;;5.20;99.90;5.00;97574.00;;;;5080850;28;20226;-70
2021/10/18 07:14:39;;;;;;;8.70;6.63;;;5.30;99.90;5.00;97570.00;;;;5063606;28;20206;-73
2021/10/18 07:17:29;;;;;;;8.83;6.20;;;5.40;99.90;5.00;97585.00;;;;5091670;28;20584;-70
2021/10/18 07:20:18;;;;;;;8.57;6.23;;;5.50;99.90;5.20;97575.00;;;;5101793;28;20202;-70
2021/10/18 07:23:10;;;;;;;8.27;7.00;;;5.60;99.90;5.40;97576.00;;;;5097353;28;20191;-69
2021/10/18 07:26:01;;;;;;;10.03;7.23;;;5.70;99.90;5.50;97581.00;;;;5090784;28;20207;-70
2021/10/18 07:28:50;;;;;;;11.50;8.07;;;5.70;99.90;5.60;97598.00;;;;5093214;28;20230;-71
2021/10/18 07:31:41;;;;;;;10.90;8.40;;;5.90;99.90;5.80;97594.00;;;;5096745;27;20230;-71
2021/10/18 07:34:31;;;;;;;12.30;8.60;;;6.00;99.90;6.10;97592.00;;;;5092919;28;20330;-70
2021/10/18 07:37:26;;;;;;;10.40;8.13;;;6.10;99.90;6.20;97609.00;;;;5097535;28;20216;-73
2021/10/18 07:40:15;;;;;;;8.97;7.73;;;6.20;99.90;6.20;97601.00;;;;5090152;28;20202;-71
2021/10/18 07:43:06;;;;;;;10.43;7.57;;;6.40;99.90;6.30;97607.00;;;;5098709;28;20203;-70
2021/10/18 07:45:55;;;;;;;7.73;6.93;;;6.40;99.90;6.30;97601.00;;;;5096475;27;20203;-71
2021/10/18 07:48:44;;;;;;;9.13;6.97;;;6.50;99.90;6.20;97611.00;;;;5088223;28;20222;-70
2021/10/18 07:51:35;;;;;;;7.60;6.80;;;6.60;99.90;6.40;97613.00;;;;5098529;28;20210;-70
2021/10/18 07:54:27;;;;;;;9.37;7.00;;;6.70;99.90;6.50;97622.00;;;;5097988;28;20199;-74
2021/10/18 07:57:16;;;;;;;11.43;7.47;;;6.70;99.90;6.60;97627.00;;;;5092306;27;20214;-71
2021/10/18 08:00:06;;;;;;;8.47;6.40;;;6.80;99.90;6.70;97624.00;;;;5102001;28;20199;-73
2021/10/18 08:02:55;;;;;;;10.43;8.33;;;6.90;99.90;6.80;97627.00;;;;5097893;28;20206;-71
2021/10/18 08:05:44;;;;;;;10.93;8.20;;;7.00;99.90;7.10;97616.00;;;;5087651;28;20231;-70
2021/10/18 08:08:43;;;;;;;9.87;7.97;;;7.10;99.90;7.30;97619.00;;;;5098211;28;20971;-74
2021/10/18 08:11:31;;;;;;;9.63;7.83;;;7.30;99.90;7.40;97615.00;;;;5095923;28;20624;-73
2021/10/18 08:14:20;;;;;;;10.50;8.10;;;7.40;99.90;7.50;97621.00;;;;5072122;28;20206;-73
2021/10/18 08:17:09;;;;;;;9.53;7.87;;;7.80;99.90;7.60;97626.00;;;;5083035;28;20702;-72
2021/10/18 08:19:58;;;;;;;8.97;7.23;;;7.70;99.90;7.60;97622.00;;;;5081763;28;20207;-72
2021/10/18 08:22:48;;;;;;;12.93;7.37;;;7.80;99.90;7.60;97633.00;;;;5087260;28;20219;-72
2021/10/18 08:25:40;;;;;;;9.27;7.27;;;7.90;99.90;7.80;97629.00;;;;5085638;28;20207;-72
2021/10/18 08:28:30;;;;;;;9.13;7.47;;;8.00;99.90;8.30;97634.00;;;;5084729;28;20231;-72
2021/10/18 08:31:31;;;;;;;8.20;7.07;;;8.20;99.90;8.70;97632.00;;;;5069153;28;20223;-69
2021/10/18 08:34:20;;;;;;;10.67;7.20;;;8.40;99.90;9.10;97637.00;;;;5078510;28;20211;-69
2021/10/18 08:37:09;;;;;;;11.37;7.13;;;8.70;99.90;9.70;97652.00;;;;5083480;28;20565;-69
2021/10/18 08:40:05;;;;;;;9.43;6.60;;;9.00;99.90;10.00;97659.00;;;;5083831;28;20858;-70
2021/10/18 08:43:01;;;;;;;9.17;6.73;;;9.30;99.90;9.90;97657.00;;;;5079492;28;20199;-70
2021/10/18 08:45:50;;;;;;;10.17;6.40;;;9.60;99.90;10.00;97665.00;;;;5079153;28;20214;-69
2021/10/18 08:48:40;;;;;;;13.77;7.00;;;9.70;99.90;10.10;97651.00;;;;5067565;28;20269;-71
2021/10/18 08:51:30;;;;;;;9.13;6.00;;;9.90;99.90;10.30;97667.00;;;;5079961;28;20283;-69
2021/10/18 08:54:19;;;;;;;7.23;6.00;;;10.00;99.90;10.40;97661.00;;;;5070381;28;20219;-70
2021/10/18 08:57:15;;;;;;;9.63;5.93;;;10.20;99.90;10.50;97661.00;;;;5084309;28;20241;-70
2021/10/18 09:00:08;;;;;;;7.80;6.30;;;10.30;99.90;10.70;97655.00;;;;5082442;28;20199;-71
2021/10/18 09:02:59;;;;;;;7.63;5.63;;;10.40;99.90;11.10;97669.00;;;;5074501;28;20203;-70
2021/10/18 09:05:48;;;;;;;11.70;5.47;;;10.60;99.90;11.30;97662.00;;;;5065601;28;20211;-71
2021/10/18 09:08:39;;;;;;;7.33;5.93;;;10.80;99.90;11.50;97669.00;;;;5077426;28;20216;-70
2021/10/18 09:11:30;;;;;;;8.10;6.10;;;11.00;99.90;11.80;97660.00;;;;5072799;28;20587;-70
2021/10/18 09:14:19;;;;;;;10.90;6.47;;;11.20;99.90;12.20;97665.00;;;;5066304;28;20203;-69
2021/10/18 09:17:09;;;;;;;6.13;5.53;;;11.50;99.90;12.40;97664.00;;;;5077723;28;20212;-69
2021/10/18 09:20:22;;;;;;;7.13;6.00;;;11.70;99.90;12.70;97684.00;;;;5078974;28;20207;-69
2021/10/18 09:23:24;;;;;;;5.97;4.87;;;12.00;99.90;12.90;97682.00;;;;5086551;28;20705;-70
2021/10/18 09:26:15;;;;;;;9.90;5.53;;;12.30;99.90;12.70;97683.00;;;;5072525;28;20570;-70
2021/10/18 09:29:07;;;;;;;5.70;4.67;;;12.40;99.90;12.90;97675.00;;;;5070816;28;20246;-70
2021/10/18 09:32:02;;;;;;;4.87;4.37;;;12.50;99.90;13.00;97683.00;;;;5067895;28;20227;-70
2021/10/18 09:34:52;;;;;;;7.00;4.00;;;12.60;99.90;13.20;97685.00;;;;5082656;28;20208;-71
2021/10/18 09:37:42;;;;;;;5.37;4.87;;;12.70;99.90;13.50;97702.00;;;;5073221;28;20222;-70
2021/10/18 09:40:33;;;;;;;5.80;4.90;;;12.90;99.90;13.30;97692.00;;;;5068576;28;20206;-70
2021/10/18 09:43:33;;;;;;;5.23;4.40;;;13.00;99.90;13.50;97687.00;;;;5083189;28;20670;-69
2021/10/18 09:46:24;;;;;;;6.83;4.70;;;13.10;99.90;13.70;97697.00;;;;5071603;28;20204;-70
2021/10/18 10:53:48;;;;;;;6.53;5.57;;;14.90;99.90;14.60;97680.00;;;;5074496;28;20199;-69
2021/10/18 10:56:45;;;;;;;7.63;5.03;;;14.80;99.90;14.70;97681.00;;;;5069678;28;20195;-70
2021/10/18 10:59:35;;;;;;;8.47;6.10;;;15.00;99.90;14.40;97674.00;;;;5076095;28;20203;-70
2021/10/18 11:02:33;;;;;;;5.47;4.63;;;15.00;99.90;14.50;97676.00;;;;5073999;28;20324;-70
2021/10/18 11:05:29;;;;;;;10.40;5.67;;;14.80;99.90;14.50;97684.00;;;;5079563;28;20204;-70
2021/10/18 11:08:31;;;;;;;6.30;4.73;;;14.70;99.90;14.20;97671.00;;;;5077707;28;20214;-70
2021/10/18 11:11:22;;;;;;;5.20;4.47;;;14.70;99.90;14.60;97652.00;;;;5071847;28;20230;-70
2021/10/18 11:14:11;;;;;;;5.37;4.23;;;14.80;99.90;14.90;97645.00;;;;5077237;28;20219;-71
2021/10/18 11:17:00;;;;;;;4.87;4.13;;;15.00;99.90;15.30;97649.00;;;;5083231;28;20199;-69
2021/10/18 11:19:56;;;;;;;6.57;4.50;;;15.20;99.90;15.70;97636.00;;;;5078445;28;20211;-69
2021/10/18 11:22:48;;;;;;;8.83;4.43;;;15.40;99.90;16.40;97646.00;;;;5089263;28;20204;-70
2021/10/18 11:25:39;;;;;;;4.93;3.83;;;15.90;99.90;16.00;97634.00;;;;5076276;28;20625;-70
2021/10/18 11:28:28;;;;;;;5.60;3.83;;;16.40;99.90;16.60;97640.00;;;;5078664;28;20199;-71
2021/10/18 11:31:18;;;;;;;5.33;4.83;;;16.70;99.90;18.00;97642.00;;;;5074227;28;20250;-72
2021/10/18 11:34:11;;;;;;;6.33;4.17;;;17.20;99.90;18.30;97647.00;;;;5076997;28;20285;-72
2021/10/18 11:37:01;;;;;;;5.70;4.07;;;17.80;99.00;19.80;97643.00;;;;5071204;28;20200;-71
2021/10/18 11:39:50;;;;;;;6.50;4.63;;;18.40;99.00;20.50;97646.00;;;;5076666;28;20195;-71
2021/10/18 11:42:49;;;;;;;6.23;4.77;;;19.10;98.30;21.10;97642.00;;;;5079982;28;20219;-73
2021/10/18 11:45:41;;;;;;;8.40;4.60;;;20.40;95.70;21.60;97651.00;;;;5082578;28;20212;-72
2021/10/18 11:48:32;;;;;;;7.73;4.70;;;20.50;92.20;20.30;97642.00;;;;5081066;28;20194;-72
2021/10/18 11:51:21;;;;;;;5.20;4.57;;;20.90;84.40;20.60;97644.00;;;;5080467;28;20249;-72
2021/10/18 11:54:11;;;;;;;5.97;4.70;;;20.90;82.70;20.20;97637.00;;;;5088275;28;20211;-71
2021/10/18 11:57:00;;;;;;;6.73;5.23;;;20.80;80.60;20.60;97638.00;;;;5094403;28;20219;-70
2021/10/18 11:59:49;;;;;;;7.10;4.80;;;20.80;78.80;21.30;97638.00;;;;5086803;28;20201;-72
2021/10/18 12:02:43;;;;;;;5.93;5.33;;;21.00;79.10;22.20;97634.00;;;;5091103;28;20229;-73
2021/10/18 12:05:38;;;;;;;5.13;4.63;;;21.40;77.50;21.60;97668.00;;;;5086792;28;20208;-72
2021/10/18 12:08:29;;;;;;;4.30;3.90;;;21.80;74.30;20.90;97635.00;;;;5087212;28;20584;-72
2021/10/18 12:11:20;;;;;;;5.57;4.80;;;21.60;73.00;21.30;97644.00;;;;5085047;28;20236;-72
2021/10/18 12:14:09;;;;;;;7.80;4.60;;;21.30;72.60;21.90;97621.00;;;;5087688;28;20206;-71
2021/10/18 12:16:58;;;;;;;7.27;5.10;;;21.50;72.30;22.20;97630.00;;;;5090883;28;20676;-71
2021/10/18 12:19:47;;;;;;;4.33;3.93;;;21.70;72.10;22.20;97642.00;;;;5072868;28;20213;-71
2021/10/18 12:22:36;;;;;;;6.13;4.67;;;21.90;70.40;20.90;97653.00;;;;5081728;28;20907;-70
2021/10/18 12:25:25;;;;;;;6.97;4.20;;;21.80;68.30;20.80;97669.00;;;;5083744;28;20222;-72
2021/10/18 12:28:48;;;;;;;5.03;4.47;;;21.50;69.00;20.10;97666.00;;;;5081152;28;20204;-71
2021/10/18 12:31:40;;;;;;;5.07;4.23;;;20.90;69.90;18.80;97653.00;;;;5024663;28;20222;-70
2021/10/18 12:34:30;;;;;;;7.47;5.20;;;20.20;70.50;20.00;97627.00;;;;5082100;28;20206;-70
2021/10/18 12:37:19;;;;;;;4.43;4.03;;;20.00;71.80;21.00;97618.00;;;;5087158;28;20199;-71
2021/10/18 12:40:09;;;;;;;6.43;4.50;;;20.10;72.60;21.30;97630.00;;;;5085020;28;20207;-71
2021/10/18 12:42:58;;;;;;;6.33;5.03;;;20.60;71.40;19.70;97622.00;;;;5096234;28;20212;-71
2021/10/18 12:45:48;;;;;;;5.30;4.50;;;21.20;67.50;21.70;97626.00;;;;5070977;28;20214;-70
2021/10/18 12:48:37;;;;;;;5.23;4.67;;;21.30;68.70;22.90;97635.00;;;;5068310;28;20223;-71
2021/10/18 12:51:42;;;;;;;6.33;5.43;;;21.70;69.60;22.90;97620.00;;;;5081516;28;20226;-72
2021/10/18 12:54:40;;;;;;;7.20;5.10;;;22.20;66.70;23.70;97611.00;;;;5075896;28;20468;-71
2021/10/18 12:57:31;;;;;;;5.93;3.87;;;22.60;66.70;24.00;97619.00;;;;5085063;28;20203;-72
2021/10/18 13:00:27;;;;;;;5.30;4.80;;;23.10;65.30;23.10;97612.00;;;;5079892;28;20210;-72
2021/10/18 13:03:20;;;;;;;6.33;4.50;;;23.80;61.40;24.10;97615.00;;;;5073387;28;20203;-72
2021/10/18 13:06:16;;;;;;;6.47;4.65;;;23.80;61.60;25.00;97622.00;;;;5069962;28;20231;-72
2021/10/18 13:09:05;;;;;;;5.40;3.63;;;24.10;60.80;25.30;97614.00;;;;5084255;28;20209;-72
2021/10/18 13:11:54;;;;;;;7.30;5.10;;;24.40;60.60;25.50;97629.00;;;;5081627;28;20301;-71
2021/10/18 13:14:44;;;;;;;5.95;4.50;;;24.80;59.10;23.20;97619.00;;;;5083458;28;20387;-72
2021/10/18 13:17:33;;;;;;;5.25;4.75;;;25.00;57.40;22.90;97623.00;;;;5084373;28;21367;-71
2021/10/18 13:20:27;;;;;;;5.25;4.75;;;24.30;57.00;22.10;97614.00;;;;5080584;28;20792;-71
2021/10/18 13:23:20;;;;;;;5.70;4.95;;;24.00;57.40;19.50;97599.00;;;;5092581;28;20388;-71
2021/10/18 13:26:09;;;;;;;5.45;4.80;;;22.60;58.20;18.60;97597.00;;;;5087196;28;20397;-70
2021/10/18 13:28:58;;;;;;;6.95;5.22;;;21.30;60.10;18.40;97603.00;;;;5095097;28;20397;-70
2021/10/18 13:31:47;;;;;;;5.60;4.07;;;20.60;62.50;19.70;97617.00;;;;5105453;28;20234;-71
2021/10/18 13:34:37;;;;;;;5.70;5.00;;;20.60;65.40;21.00;97606.00;;;;5104387;28;20208;-71
2021/10/18 13:37:27;;;;;;;6.50;4.83;;;20.80;64.60;21.30;97623.00;;;;5105282;28;20200;-71
2021/10/18 13:40:18;;;;;;;5.23;4.20;;;20.90;64.90;21.10;97617.00;;;;5105641;28;20203;-70
2021/10/18 13:43:09;;;;;;;4.87;4.13;;;21.20;64.10;22.90;97630.00;;;;5103524;28;20213;-72
2021/10/18 13:45:58;;;;;;;9.07;5.03;;;21.60;65.60;22.20;97629.00;;;;5109236;27;20687;-72
2021/10/18 13:48:47;;;;;;;6.33;4.80;;;22.00;63.00;21.40;97633.00;;;;5095697;27;20258;-71
2021/10/18 13:51:37;;;;;;;6.57;4.13;;;22.20;60.40;22.60;97637.00;;;;5103271;28;20212;-72
2021/10/18 13:54:27;;;;;;;5.70;4.90;;;22.40;61.00;19.60;97619.00;;;;5102661;28;20632;-73